sensor_id;sensor_type;location;lat;lon;timestamp;P1;durP1;ratioP1;P2;durP2;ratioP2
32138;SDS011;18644;48.700;9.210;2022-08-07T00:00:55;3.20;;;0.75;;
32138;SDS011;18644;48.700;9.210;2022-08-07T00:03:22;0.70;;;0.70;;
32138;SDS011;18644;48.700;9.210;2022-08-07T00:05:51;1.20;;;0.80;;
32138;SDS011;18644;48.700;9.210;2022-08-07T00:08:18;0.73;;;0.73;;
32138;SDS011;18644;48.700;9.210;2022-08-07T00:10:46;1.00;;;0.80;;
32138;SDS011;18644;48.700;9.210;2022-08-07T00:13:13;2.05;;;1.02;;
32138;SDS011;18644;48.700;9.210;2022-08-07T00:15:41;3.05;;;0.70;;
32138;SDS011;18644;48.700;9.210;2022-08-07T00:18:09;2.65;;;1.30;;
32138;SDS011;18644;48.700;9.210;2022-08-07T00:20:36;1.05;;;0.80;;
32138;SDS011;18644;48.700;9.210;2022-08-07T00:23:05;0.75;;;0.75;;
32138;SDS011;18644;48.700;9.210;2022-08-07T00:25:32;0.70;;;0.70;;
32138;SDS011;18644;48.700;9.210;2022-08-07T00:27:59;1.13;;;1.02;;
32138;SDS011;18644;48.700;9.210;2022-08-07T00:30:26;1.38;;;0.82;;
32138;SDS011;18644;48.700;9.210;2022-08-07T00:32:54;3.10;;;1.15;;
32138;SDS011;18644;48.700;9.210;2022-08-07T00:35:22;0.70;;;0.70;;
32138;SDS011;18644;48.700;9.210;2022-08-07T00:37:49;1.20;;;0.77;;
32138;SDS011;18644;48.700;9.210;2022-08-07T00:40:17;1.58;;;0.80;;
32138;SDS011;18644;48.700;9.210;2022-08-07T00:42:44;1.00;;;0.90;;
32138;SDS011;18644;48.700;9.210;2022-08-07T00:45:11;1.08;;;0.80;;
32138;SDS011;18644;48.700;9.210;2022-08-07T00:47:38;1.67;;;0.80;;
32138;SDS011;18644;48.700;9.210;2022-08-07T00:50:05;0.80;;;0.80;;
32138;SDS011;18644;48.700;9.210;2022-08-07T00:52:33;1.02;;;0.77;;
32138;SDS011;18644;48.700;9.210;2022-08-07T00:55:00;1.00;;;0.80;;
32138;SDS011;18644;48.700;9.210;2022-08-07T00:57:29;0.93;;;0.80;;
32138;SDS011;18644;48.700;9.210;2022-08-07T00:59:55;0.90;;;0.85;;
32138;SDS011;18644;48.700;9.210;2022-08-07T01:02:23;0.85;;;0.80;;
32138;SDS011;18644;48.700;9.210;2022-08-07T01:04:50;1.23;;;0.63;;
32138;SDS011;18644;48.700;9.210;2022-08-07T01:07:19;0.75;;;0.70;;
32138;SDS011;18644;48.700;9.210;2022-08-07T01:09:47;1.60;;;0.73;;
32138;SDS011;18644;48.700;9.210;2022-08-07T01:12:14;0.75;;;0.70;;
32138;SDS011;18644;48.700;9.210;2022-08-07T01:14:43;0.82;;;0.80;;
32138;SDS011;18644;48.700;9.210;2022-08-07T01:17:10;0.90;;;0.73;;
32138;SDS011;18644;48.700;9.210;2022-08-07T01:19:38;1.40;;;0.82;;
32138;SDS011;18644;48.700;9.210;2022-08-07T01:22:07;0.70;;;0.70;;
32138;SDS011;18644;48.700;9.210;2022-08-07T01:24:34;1.23;;;0.73;;
32138;SDS011;18644;48.700;9.210;2022-08-07T01:27:02;0.73;;;0.70;;
32138;SDS011;18644;48.700;9.210;2022-08-07T01:29:29;0.77;;;0.77;;
32138;SDS011;18644;48.700;9.210;2022-08-07T01:31:58;8.40;;;1.65;;
32138;SDS011;18644;48.700;9.210;2022-08-07T01:34:25;0.75;;;0.68;;
32138;SDS011;18644;48.700;9.210;2022-08-07T01:36:55;1.42;;;0.70;;
32138;SDS011;18644;48.700;9.210;2022-08-07T01:39:24;0.88;;;0.75;;
32138;SDS011;18644;48.700;9.210;2022-08-07T01:41:52;1.92;;;0.90;;
32138;SDS011;18644;48.700;9.210;2022-08-07T01:44:19;1.48;;;0.90;;
32138;SDS011;18644;48.700;9.210;2022-08-07T01:46:47;0.60;;;0.60;;
32138;SDS011;18644;48.700;9.210;2022-08-07T01:49:14;0.70;;;0.70;;
32138;SDS011;18644;48.700;9.210;2022-08-07T01:51:40;0.60;;;0.60;;
32138;SDS011;18644;48.700;9.210;2022-08-07T01:54:10;0.82;;;0.65;;
32138;SDS011;18644;48.700;9.210;2022-08-07T01:56:42;0.90;;;0.70;;
32138;SDS011;18644;48.700;9.210;2022-08-07T01:59:17;0.73;;;0.73;;
32138;SDS011;18644;48.700;9.210;2022-08-07T02:01:52;0.70;;;0.70;;
32138;SDS011;18644;48.700;9.210;2022-08-07T02:04:25;1.83;;;1.10;;
32138;SDS011;18644;48.700;9.210;2022-08-07T02:06:57;3.70;;;1.08;;
32138;SDS011;18644;48.700;9.210;2022-08-07T02:09:26;2.38;;;0.80;;
32138;SDS011;18644;48.700;9.210;2022-08-07T02:11:56;1.05;;;0.85;;
32138;SDS011;18644;48.700;9.210;2022-08-07T02:14:40;0.63;;;0.63;;
32138;SDS011;18644;48.700;9.210;2022-08-07T02:17:09;0.95;;;0.80;;
32138;SDS011;18644;48.700;9.210;2022-08-07T02:19:40;0.68;;;0.68;;
32138;SDS011;18644;48.700;9.210;2022-08-07T02:22:10;1.60;;;0.80;;
32138;SDS011;18644;48.700;9.210;2022-08-07T02:24:39;2.60;;;0.90;;
32138;SDS011;18644;48.700;9.210;2022-08-07T02:27:10;3.45;;;0.90;;
32138;SDS011;18644;48.700;9.210;2022-08-07T02:29:38;1.05;;;0.70;;
32138;SDS011;18644;48.700;9.210;2022-08-07T02:32:07;3.95;;;0.98;;
32138;SDS011;18644;48.700;9.210;2022-08-07T02:34:35;2.22;;;0.98;;
32138;SDS011;18644;48.700;9.210;2022-08-07T02:37:04;5.20;;;1.00;;
32138;SDS011;18644;48.700;9.210;2022-08-07T02:39:33;1.27;;;0.80;;
32138;SDS011;18644;48.700;9.210;2022-08-07T02:42:01;1.58;;;0.75;;
32138;SDS011;18644;48.700;9.210;2022-08-07T02:44:30;1.05;;;0.88;;
32138;SDS011;18644;48.700;9.210;2022-08-07T02:46:58;2.05;;;1.00;;
32138;SDS011;18644;48.700;9.210;2022-08-07T02:49:27;1.10;;;1.00;;
32138;SDS011;18644;48.700;9.210;2022-08-07T02:51:54;2.70;;;0.90;;
32138;SDS011;18644;48.700;9.210;2022-08-07T02:54:24;1.83;;;1.02;;
32138;SDS011;18644;48.700;9.210;2022-08-07T02:56:54;1.58;;;0.90;;
32138;SDS011;18644;48.700;9.210;2022-08-07T02:59:26;5.50;;;1.10;;
32138;SDS011;18644;48.700;9.210;2022-08-07T03:01:56;2.72;;;0.90;;
32138;SDS011;18644;48.700;9.210;2022-08-07T03:04:24;3.33;;;1.30;;
32138;SDS011;18644;48.700;9.210;2022-08-07T03:06:53;4.53;;;1.30;;
32138;SDS011;18644;48.700;9.210;2022-08-07T03:09:20;3.53;;;1.33;;
32138;SDS011;18644;48.700;9.210;2022-08-07T03:11:48;3.00;;;1.23;;
32138;SDS011;18644;48.700;9.210;2022-08-07T03:14:16;2.40;;;1.30;;
32138;SDS011;18644;48.700;9.210;2022-08-07T03:16:44;4.97;;;1.40;;
32138;SDS011;18644;48.700;9.210;2022-08-07T03:19:13;3.72;;;1.20;;
32138;SDS011;18644;48.700;9.210;2022-08-07T03:21:40;2.78;;;1.00;;
32138;SDS011;18644;48.700;9.210;2022-08-07T03:24:07;4.50;;;1.13;;
32138;SDS011;18644;48.700;9.210;2022-08-07T03:26:34;3.65;;;0.90;;
32138;SDS011;18644;48.700;9.210;2022-08-07T03:29:03;5.15;;;1.25;;
32138;SDS011;18644;48.700;9.210;2022-08-07T03:31:32;2.88;;;1.08;;
32138;SDS011;18644;48.700;9.210;2022-08-07T03:34:02;4.65;;;1.58;;
32138;SDS011;18644;48.700;9.210;2022-08-07T03:36:32;7.18;;;1.40;;
32138;SDS011;18644;48.700;9.210;2022-08-07T03:39:01;5.65;;;1.17;;
32138;SDS011;18644;48.700;9.210;2022-08-07T03:41:32;2.47;;;1.00;;
32138;SDS011;18644;48.700;9.210;2022-08-07T03:44:00;1.25;;;0.90;;
32138;SDS011;18644;48.700;9.210;2022-08-07T03:46:28;3.95;;;1.05;;
32138;SDS011;18644;48.700;9.210;2022-08-07T03:48:56;2.28;;;1.30;;
32138;SDS011;18644;48.700;9.210;2022-08-07T03:51:23;5.00;;;1.10;;
32138;SDS011;18644;48.700;9.210;2022-08-07T03:53:54;2.38;;;1.08;;
32138;SDS011;18644;48.700;9.210;2022-08-07T03:56:21;3.42;;;0.98;;
32138;SDS011;18644;48.700;9.210;2022-08-07T03:58:50;1.42;;;0.90;;
32138;SDS011;18644;48.700;9.210;2022-08-07T04:01:17;3.42;;;1.10;;
32138;SDS011;18644;48.700;9.210;2022-08-07T04:03:46;2.05;;;1.05;;
32138;SDS011;18644;48.700;9.210;2022-08-07T04:06:15;2.33;;;1.02;;
32138;SDS011;18644;48.700;9.210;2022-08-07T04:08:42;2.75;;;1.10;;
32138;SDS011;18644;48.700;9.210;2022-08-07T04:11:12;0.80;;;0.80;;
32138;SDS011;18644;48.700;9.210;2022-08-07T04:13:39;4.20;;;1.00;;
32138;SDS011;18644;48.700;9.210;2022-08-07T04:16:07;4.30;;;1.27;;
32138;SDS011;18644;48.700;9.210;2022-08-07T04:18:34;1.42;;;1.33;;
32138;SDS011;18644;48.700;9.210;2022-08-07T04:21:01;3.03;;;1.10;;
32138;SDS011;18644;48.700;9.210;2022-08-07T04:23:28;1.20;;;1.10;;
32138;SDS011;18644;48.700;9.210;2022-08-07T04:25:58;1.05;;;0.88;;
32138;SDS011;18644;48.700;9.210;2022-08-07T04:28:26;1.42;;;1.15;;
32138;SDS011;18644;48.700;9.210;2022-08-07T04:30:53;3.10;;;0.98;;
32138;SDS011;18644;48.700;9.210;2022-08-07T04:33:20;1.25;;;0.80;;
32138;SDS011;18644;48.700;9.210;2022-08-07T04:35:49;1.45;;;0.85;;
32138;SDS011;18644;48.700;9.210;2022-08-07T04:38:16;1.52;;;0.88;;
32138;SDS011;18644;48.700;9.210;2022-08-07T04:40:44;1.30;;;0.90;;
32138;SDS011;18644;48.700;9.210;2022-08-07T04:43:12;1.63;;;1.08;;
32138;SDS011;18644;48.700;9.210;2022-08-07T04:45:47;1.45;;;0.98;;
32138;SDS011;18644;48.700;9.210;2022-08-07T04:48:26;3.30;;;0.95;;
32138;SDS011;18644;48.700;9.210;2022-08-07T04:51:03;1.48;;;1.00;;
32138;SDS011;18644;48.700;9.210;2022-08-07T04:56:04;1.05;;;0.80;;
32138;SDS011;18644;48.700;9.210;2022-08-07T04:58:42;1.50;;;1.00;;
32138;SDS011;18644;48.700;9.210;2022-08-07T05:01:19;2.03;;;1.05;;
32138;SDS011;18644;48.700;9.210;2022-08-07T05:03:53;0.98;;;0.88;;
32138;SDS011;18644;48.700;9.210;2022-08-07T05:06:30;0.95;;;0.80;;
32138;SDS011;18644;48.700;9.210;2022-08-07T05:09:02;5.22;;;1.05;;
32138;SDS011;18644;48.700;9.210;2022-08-07T05:11:37;2.78;;;1.10;;
32138;SDS011;18644;48.700;9.210;2022-08-07T05:14:14;1.98;;;1.00;;
32138;SDS011;18644;48.700;9.210;2022-08-07T05:16:47;1.55;;;0.90;;
32138;SDS011;18644;48.700;9.210;2022-08-07T05:19:18;0.82;;;0.82;;
32138;SDS011;18644;48.700;9.210;2022-08-07T05:21:51;2.70;;;1.05;;
32138;SDS011;18644;48.700;9.210;2022-08-07T05:26:49;5.45;;;1.48;;
32138;SDS011;18644;48.700;9.210;2022-08-07T05:29:21;2.47;;;0.75;;
32138;SDS011;18644;48.700;9.210;2022-08-07T05:31:52;1.42;;;1.15;;
32138;SDS011;18644;48.700;9.210;2022-08-07T05:34:19;5.65;;;1.52;;
32138;SDS011;18644;48.700;9.210;2022-08-07T05:36:49;1.27;;;1.00;;
32138;SDS011;18644;48.700;9.210;2022-08-07T05:39:18;2.22;;;1.10;;
32138;SDS011;18644;48.700;9.210;2022-08-07T05:41:47;1.23;;;1.10;;
32138;SDS011;18644;48.700;9.210;2022-08-07T05:44:15;1.40;;;1.17;;
32138;SDS011;18644;48.700;9.210;2022-08-07T05:46:45;1.20;;;1.05;;
32138;SDS011;18644;48.700;9.210;2022-08-07T05:49:14;1.00;;;1.00;;
32138;SDS011;18644;48.700;9.210;2022-08-07T05:51:42;2.35;;;1.30;;
32138;SDS011;18644;48.700;9.210;2022-08-07T05:54:10;1.35;;;1.23;;
32138;SDS011;18644;48.700;9.210;2022-08-07T05:56:38;3.65;;;1.52;;
32138;SDS011;18644;48.700;9.210;2022-08-07T05:59:07;2.75;;;1.50;;
32138;SDS011;18644;48.700;9.210;2022-08-07T06:01:40;1.60;;;1.50;;
32138;SDS011;18644;48.700;9.210;2022-08-07T06:04:09;2.03;;;1.38;;
32138;SDS011;18644;48.700;9.210;2022-08-07T06:06:38;2.13;;;1.60;;
32138;SDS011;18644;48.700;9.210;2022-08-07T06:09:05;3.05;;;1.50;;
32138;SDS011;18644;48.700;9.210;2022-08-07T06:11:32;1.38;;;1.27;;
32138;SDS011;18644;48.700;9.210;2022-08-07T06:14:00;1.85;;;1.52;;
32138;SDS011;18644;48.700;9.210;2022-08-07T06:16:30;2.20;;;1.98;;
32138;SDS011;18644;48.700;9.210;2022-08-07T06:18:59;5.75;;;2.10;;
32138;SDS011;18644;48.700;9.210;2022-08-07T06:21:26;3.45;;;1.70;;
32138;SDS011;18644;48.700;9.210;2022-08-07T06:23:55;2.20;;;1.85;;
32138;SDS011;18644;48.700;9.210;2022-08-07T06:26:22;1.65;;;1.55;;
32138;SDS011;18644;48.700;9.210;2022-08-07T06:28:50;1.95;;;1.77;;
32138;SDS011;18644;48.700;9.210;2022-08-07T06:31:19;1.60;;;1.50;;
32138;SDS011;18644;48.700;9.210;2022-08-07T06:33:47;2.42;;;1.90;;
32138;SDS011;18644;48.700;9.210;2022-08-07T06:36:14;2.22;;;2.03;;
32138;SDS011;18644;48.700;9.210;2022-08-07T06:38:41;2.38;;;2.10;;
32138;SDS011;18644;48.700;9.210;2022-08-07T06:41:11;2.47;;;2.28;;
32138;SDS011;18644;48.700;9.210;2022-08-07T06:43:44;3.03;;;2.00;;
32138;SDS011;18644;48.700;9.210;2022-08-07T06:46:13;2.05;;;1.70;;
32138;SDS011;18644;48.700;9.210;2022-08-07T06:48:40;1.90;;;1.80;;
32138;SDS011;18644;48.700;9.210;2022-08-07T06:51:08;1.63;;;1.50;;
32138;SDS011;18644;48.700;9.210;2022-08-07T06:53:39;2.55;;;1.70;;
32138;SDS011;18644;48.700;9.210;2022-08-07T06:56:07;2.42;;;1.75;;
32138;SDS011;18644;48.700;9.210;2022-08-07T06:58:37;2.17;;;1.80;;
32138;SDS011;18644;48.700;9.210;2022-08-07T07:01:06;1.45;;;1.35;;
32138;SDS011;18644;48.700;9.210;2022-08-07T07:03:36;4.18;;;1.50;;
32138;SDS011;18644;48.700;9.210;2022-08-07T07:06:05;1.30;;;1.20;;
32138;SDS011;18644;48.700;9.210;2022-08-07T07:08:33;2.08;;;1.33;;
32138;SDS011;18644;48.700;9.210;2022-08-07T07:11:00;1.17;;;1.08;;
32138;SDS011;18644;48.700;9.210;2022-08-07T07:13:30;1.20;;;0.93;;
32138;SDS011;18644;48.700;9.210;2022-08-07T07:16:07;1.60;;;1.30;;
32138;SDS011;18644;48.700;9.210;2022-08-07T07:18:40;2.00;;;1.38;;
32138;SDS011;18644;48.700;9.210;2022-08-07T07:21:11;0.98;;;0.88;;
32138;SDS011;18644;48.700;9.210;2022-08-07T07:23:44;1.00;;;1.00;;
32138;SDS011;18644;48.700;9.210;2022-08-07T07:26:13;1.42;;;1.05;;
32138;SDS011;18644;48.700;9.210;2022-08-07T07:28:46;1.77;;;1.20;;
32138;SDS011;18644;48.700;9.210;2022-08-07T07:31:20;1.30;;;1.02;;
32138;SDS011;18644;48.700;9.210;2022-08-07T07:33:55;2.30;;;1.08;;
32138;SDS011;18644;48.700;9.210;2022-08-07T07:36:29;1.13;;;1.02;;
32138;SDS011;18644;48.700;9.210;2022-08-07T07:39:02;0.82;;;0.82;;
32138;SDS011;18644;48.700;9.210;2022-08-07T07:41:30;3.13;;;0.90;;
32138;SDS011;18644;48.700;9.210;2022-08-07T07:44:01;0.75;;;0.75;;
32138;SDS011;18644;48.700;9.210;2022-08-07T07:46:31;2.65;;;1.00;;
32138;SDS011;18644;48.700;9.210;2022-08-07T07:49:02;0.85;;;0.80;;
32138;SDS011;18644;48.700;9.210;2022-08-07T07:51:33;1.13;;;0.73;;
32138;SDS011;18644;48.700;9.210;2022-08-07T07:54:02;1.48;;;0.75;;
32138;SDS011;18644;48.700;9.210;2022-08-07T07:56:32;1.75;;;0.80;;
32138;SDS011;18644;48.700;9.210;2022-08-07T07:59:02;1.38;;;0.70;;
32138;SDS011;18644;48.700;9.210;2022-08-07T08:01:30;0.85;;;0.70;;
32138;SDS011;18644;48.700;9.210;2022-08-07T08:04:01;0.82;;;0.82;;
32138;SDS011;18644;48.700;9.210;2022-08-07T08:06:30;0.70;;;0.70;;
32138;SDS011;18644;48.700;9.210;2022-08-07T08:09:00;0.85;;;0.85;;
32138;SDS011;18644;48.700;9.210;2022-08-07T08:11:29;1.88;;;0.77;;
32138;SDS011;18644;48.700;9.210;2022-08-07T08:13:57;0.70;;;0.70;;
32138;SDS011;18644;48.700;9.210;2022-08-07T08:16:26;0.93;;;0.60;;
32138;SDS011;18644;48.700;9.210;2022-08-07T08:18:59;0.80;;;0.70;;
32138;SDS011;18644;48.700;9.210;2022-08-07T08:21:27;1.30;;;1.20;;
32138;SDS011;18644;48.700;9.210;2022-08-07T08:24:13;0.75;;;0.60;;
32138;SDS011;18644;48.700;9.210;2022-08-07T08:27:01;0.60;;;0.60;;
32138;SDS011;18644;48.700;9.210;2022-08-07T08:29:30;0.80;;;0.75;;
32138;SDS011;18644;48.700;9.210;2022-08-07T08:34:31;0.65;;;0.63;;
32138;SDS011;18644;48.700;9.210;2022-08-07T08:36:59;0.80;;;0.70;;
32138;SDS011;18644;48.700;9.210;2022-08-07T08:39:28;1.67;;;0.60;;
32138;SDS011;18644;48.700;9.210;2022-08-07T08:41:58;0.63;;;0.63;;
32138;SDS011;18644;48.700;9.210;2022-08-07T08:44:32;0.82;;;0.70;;
32138;SDS011;18644;48.700;9.210;2022-08-07T08:47:21;0.70;;;0.60;;
32138;SDS011;18644;48.700;9.210;2022-08-07T08:49:55;0.60;;;0.60;;
32138;SDS011;18644;48.700;9.210;2022-08-07T08:52:32;0.80;;;0.80;;
32138;SDS011;18644;48.700;9.210;2022-08-07T08:55:05;0.60;;;0.60;;
32138;SDS011;18644;48.700;9.210;2022-08-07T08:57:41;0.50;;;0.50;;
32138;SDS011;18644;48.700;9.210;2022-08-07T09:00:17;0.68;;;0.60;;
32138;SDS011;18644;48.700;9.210;2022-08-07T09:02:48;0.80;;;0.80;;
32138;SDS011;18644;48.700;9.210;2022-08-07T09:05:30;0.80;;;0.80;;
32138;SDS011;18644;48.700;9.210;2022-08-07T09:08:08;0.75;;;0.57;;
32138;SDS011;18644;48.700;9.210;2022-08-07T09:10:45;0.50;;;0.50;;
32138;SDS011;18644;48.700;9.210;2022-08-07T09:13:27;0.60;;;0.52;;
32138;SDS011;18644;48.700;9.210;2022-08-07T09:16:03;1.05;;;0.70;;
32138;SDS011;18644;48.700;9.210;2022-08-07T09:18:43;3.58;;;0.60;;
32138;SDS011;18644;48.700;9.210;2022-08-07T09:21:44;0.98;;;0.70;;
32138;SDS011;18644;48.700;9.210;2022-08-07T09:24:25;0.50;;;0.50;;
32138;SDS011;18644;48.700;9.210;2022-08-07T09:27:02;0.50;;;0.50;;
32138;SDS011;18644;48.700;9.210;2022-08-07T09:29:39;1.17;;;0.75;;
32138;SDS011;18644;48.700;9.210;2022-08-07T09:32:22;0.55;;;0.50;;
32138;SDS011;18644;48.700;9.210;2022-08-07T09:35:02;0.73;;;0.57;;
32138;SDS011;18644;48.700;9.210;2022-08-07T09:37:39;0.50;;;0.50;;
32138;SDS011;18644;48.700;9.210;2022-08-07T09:40:14;0.50;;;0.40;;
32138;SDS011;18644;48.700;9.210;2022-08-07T09:42:59;0.40;;;0.40;;
32138;SDS011;18644;48.700;9.210;2022-08-07T09:45:39;0.50;;;0.50;;
32138;SDS011;18644;48.700;9.210;2022-08-07T09:48:16;0.82;;;0.40;;
32138;SDS011;18644;48.700;9.210;2022-08-07T09:51:05;0.50;;;0.40;;
32138;SDS011;18644;48.700;9.210;2022-08-07T09:53:49;0.90;;;0.55;;
32138;SDS011;18644;48.700;9.210;2022-08-07T09:56:36;0.35;;;0.30;;
32138;SDS011;18644;48.700;9.210;2022-08-07T09:59:48;0.28;;;0.28;;
32138;SDS011;18644;48.700;9.210;2022-08-07T10:02:46;0.50;;;0.50;;
32138;SDS011;18644;48.700;9.210;2022-08-07T10:05:46;1.48;;;0.50;;
32138;SDS011;18644;48.700;9.210;2022-08-07T10:11:50;4.80;;;0.50;;
32138;SDS011;18644;48.700;9.210;2022-08-07T10:14:37;0.47;;;0.47;;
32138;SDS011;18644;48.700;9.210;2022-08-07T10:20:35;1.58;;;0.60;;
32138;SDS011;18644;48.700;9.210;2022-08-07T10:23:15;0.60;;;0.60;;
32138;SDS011;18644;48.700;9.210;2022-08-07T10:26:14;0.57;;;0.43;;
32138;SDS011;18644;48.700;9.210;2022-08-07T10:28:58;1.30;;;0.50;;
32138;SDS011;18644;48.700;9.210;2022-08-07T10:31:48;0.65;;;0.38;;
32138;SDS011;18644;48.700;9.210;2022-08-07T10:34:32;1.17;;;0.40;;
32138;SDS011;18644;48.700;9.210;2022-08-07T10:37:12;0.30;;;0.30;;
32138;SDS011;18644;48.700;9.210;2022-08-07T10:39:57;0.47;;;0.40;;
32138;SDS011;18644;48.700;9.210;2022-08-07T10:42:34;0.40;;;0.40;;
32138;SDS011;18644;48.700;9.210;2022-08-07T10:45:21;0.43;;;0.43;;
32138;SDS011;18644;48.700;9.210;2022-08-07T10:47:56;0.65;;;0.40;;
32138;SDS011;18644;48.700;9.210;2022-08-07T10:50:41;0.60;;;0.40;;
32138;SDS011;18644;48.700;9.210;2022-08-07T10:53:15;0.50;;;0.50;;
32138;SDS011;18644;48.700;9.210;2022-08-07T10:55:52;0.75;;;0.40;;
32138;SDS011;18644;48.700;9.210;2022-08-07T10:58:41;0.40;;;0.40;;
32138;SDS011;18644;48.700;9.210;2022-08-07T11:01:27;0.30;;;0.30;;
32138;SDS011;18644;48.700;9.210;2022-08-07T11:04:10;0.40;;;0.40;;
32138;SDS011;18644;48.700;9.210;2022-08-07T11:06:53;0.40;;;0.40;;
32138;SDS011;18644;48.700;9.210;2022-08-07T11:09:27;0.50;;;0.50;;
32138;SDS011;18644;48.700;9.210;2022-08-07T11:12:01;0.40;;;0.40;;
32138;SDS011;18644;48.700;9.210;2022-08-07T11:14:37;0.50;;;0.47;;
32138;SDS011;18644;48.700;9.210;2022-08-07T11:17:10;0.50;;;0.50;;
32138;SDS011;18644;48.700;9.210;2022-08-07T11:19:44;0.40;;;0.40;;
32138;SDS011;18644;48.700;9.210;2022-08-07T11:22:20;0.95;;;0.55;;
32138;SDS011;18644;48.700;9.210;2022-08-07T11:24:52;0.38;;;0.38;;
32138;SDS011;18644;48.700;9.210;2022-08-07T11:27:31;2.30;;;0.52;;
32138;SDS011;18644;48.700;9.210;2022-08-07T11:30:12;0.43;;;0.40;;
32138;SDS011;18644;48.700;9.210;2022-08-07T11:32:43;0.73;;;0.40;;
32138;SDS011;18644;48.700;9.210;2022-08-07T11:35:18;0.40;;;0.40;;
32138;SDS011;18644;48.700;9.210;2022-08-07T11:37:55;0.88;;;0.40;;
32138;SDS011;18644;48.700;9.210;2022-08-07T11:40:37;1.40;;;0.50;;
32138;SDS011;18644;48.700;9.210;2022-08-07T11:43:18;0.60;;;0.52;;
32138;SDS011;18644;48.700;9.210;2022-08-07T11:49:09;0.40;;;0.40;;
32138;SDS011;18644;48.700;9.210;2022-08-07T11:51:49;0.38;;;0.30;;
32138;SDS011;18644;48.700;9.210;2022-08-07T11:54:41;0.22;;;0.22;;
32138;SDS011;18644;48.700;9.210;2022-08-07T11:57:27;0.43;;;0.40;;
32138;SDS011;18644;48.700;9.210;2022-08-07T12:00:03;0.35;;;0.35;;
32138;SDS011;18644;48.700;9.210;2022-08-07T12:03:03;0.77;;;0.60;;
32138;SDS011;18644;48.700;9.210;2022-08-07T12:05:55;0.50;;;0.40;;
32138;SDS011;18644;48.700;9.210;2022-08-07T12:08:49;0.38;;;0.38;;
32138;SDS011;18644;48.700;9.210;2022-08-07T12:11:22;0.50;;;0.50;;
32138;SDS011;18644;48.700;9.210;2022-08-07T12:13:55;1.95;;;1.35;;
32138;SDS011;18644;48.700;9.210;2022-08-07T12:16:30;0.60;;;0.60;;
32138;SDS011;18644;48.700;9.210;2022-08-07T12:19:04;0.73;;;0.68;;
32138;SDS011;18644;48.700;9.210;2022-08-07T12:21:40;1.05;;;0.60;;
32138;SDS011;18644;48.700;9.210;2022-08-07T12:24:14;1.02;;;0.50;;
32138;SDS011;18644;48.700;9.210;2022-08-07T12:26:47;0.50;;;0.50;;
32138;SDS011;18644;48.700;9.210;2022-08-07T12:29:22;0.85;;;0.50;;
32138;SDS011;18644;48.700;9.210;2022-08-07T12:31:57;0.40;;;0.40;;
32138;SDS011;18644;48.700;9.210;2022-08-07T12:34:30;0.32;;;0.32;;
32138;SDS011;18644;48.700;9.210;2022-08-07T12:37:02;0.50;;;0.40;;
32138;SDS011;18644;48.700;9.210;2022-08-07T12:39:31;0.40;;;0.40;;
32138;SDS011;18644;48.700;9.210;2022-08-07T12:42:00;0.80;;;0.50;;
32138;SDS011;18644;48.700;9.210;2022-08-07T12:44:30;0.52;;;0.52;;
32138;SDS011;18644;48.700;9.210;2022-08-07T12:47:05;0.40;;;0.40;;
32138;SDS011;18644;48.700;9.210;2022-08-07T12:49:45;0.40;;;0.40;;
32138;SDS011;18644;48.700;9.210;2022-08-07T12:52:20;0.40;;;0.40;;
32138;SDS011;18644;48.700;9.210;2022-08-07T12:55:01;0.40;;;0.40;;
32138;SDS011;18644;48.700;9.210;2022-08-07T12:57:34;1.58;;;1.30;;
32138;SDS011;18644;48.700;9.210;2022-08-07T13:00:04;0.75;;;0.40;;
32138;SDS011;18644;48.700;9.210;2022-08-07T13:02:45;0.47;;;0.47;;
32138;SDS011;18644;48.700;9.210;2022-08-07T13:05:35;0.30;;;0.30;;
32138;SDS011;18644;48.700;9.210;2022-08-07T13:11:18;1.42;;;0.80;;
32138;SDS011;18644;48.700;9.210;2022-08-07T13:14:01;0.47;;;0.47;;
32138;SDS011;18644;48.700;9.210;2022-08-07T13:16:35;1.98;;;0.50;;
32138;SDS011;18644;48.700;9.210;2022-08-07T13:19:14;0.30;;;0.30;;
32138;SDS011;18644;48.700;9.210;2022-08-07T13:21:50;0.40;;;0.40;;
32138;SDS011;18644;48.700;9.210;2022-08-07T13:24:22;0.52;;;0.40;;
32138;SDS011;18644;48.700;9.210;2022-08-07T13:26:54;0.57;;;0.50;;
32138;SDS011;18644;48.700;9.210;2022-08-07T13:29:33;0.70;;;0.70;;
32138;SDS011;18644;48.700;9.210;2022-08-07T13:32:07;0.73;;;0.52;;
32138;SDS011;18644;48.700;9.210;2022-08-07T13:34:45;0.70;;;0.45;;
32138;SDS011;18644;48.700;9.210;2022-08-07T13:37:18;0.65;;;0.50;;
32138;SDS011;18644;48.700;9.210;2022-08-07T13:40:01;0.47;;;0.47;;
32138;SDS011;18644;48.700;9.210;2022-08-07T13:42:35;0.70;;;0.60;;
32138;SDS011;18644;48.700;9.210;2022-08-07T13:45:04;0.50;;;0.50;;
32138;SDS011;18644;48.700;9.210;2022-08-07T13:47:33;0.82;;;0.80;;
32138;SDS011;18644;48.700;9.210;2022-08-07T13:50:05;0.82;;;0.40;;
32138;SDS011;18644;48.700;9.210;2022-08-07T13:52:36;0.43;;;0.40;;
32138;SDS011;18644;48.700;9.210;2022-08-07T13:55:05;0.60;;;0.60;;
32138;SDS011;18644;48.700;9.210;2022-08-07T13:57:37;0.75;;;0.50;;
32138;SDS011;18644;48.700;9.210;2022-08-07T14:00:07;1.05;;;0.50;;
32138;SDS011;18644;48.700;9.210;2022-08-07T14:02:35;0.55;;;0.50;;
32138;SDS011;18644;48.700;9.210;2022-08-07T14:05:06;0.60;;;0.60;;
32138;SDS011;18644;48.700;9.210;2022-08-07T14:07:38;0.60;;;0.60;;
32138;SDS011;18644;48.700;9.210;2022-08-07T14:10:08;0.55;;;0.55;;
32138;SDS011;18644;48.700;9.210;2022-08-07T14:12:37;0.40;;;0.40;;
32138;SDS011;18644;48.700;9.210;2022-08-07T14:15:16;1.75;;;0.57;;
32138;SDS011;18644;48.700;9.210;2022-08-07T14:17:51;0.60;;;0.60;;
32138;SDS011;18644;48.700;9.210;2022-08-07T14:20:24;1.90;;;0.60;;
32138;SDS011;18644;48.700;9.210;2022-08-07T14:22:59;0.98;;;0.60;;
32138;SDS011;18644;48.700;9.210;2022-08-07T14:25:32;0.65;;;0.50;;
32138;SDS011;18644;48.700;9.210;2022-08-07T14:28:02;0.60;;;0.60;;
32138;SDS011;18644;48.700;9.210;2022-08-07T14:30:33;0.93;;;0.60;;
32138;SDS011;18644;48.700;9.210;2022-08-07T14:33:03;0.60;;;0.60;;
32138;SDS011;18644;48.700;9.210;2022-08-07T14:35:32;0.63;;;0.43;;
32138;SDS011;18644;48.700;9.210;2022-08-07T14:38:01;0.40;;;0.40;;
32138;SDS011;18644;48.700;9.210;2022-08-07T14:40:30;0.50;;;0.40;;
32138;SDS011;18644;48.700;9.210;2022-08-07T14:42:59;0.75;;;0.70;;
32138;SDS011;18644;48.700;9.210;2022-08-07T14:45:31;0.40;;;0.38;;
32138;SDS011;18644;48.700;9.210;2022-08-07T14:48:06;0.60;;;0.60;;
32138;SDS011;18644;48.700;9.210;2022-08-07T14:50:41;0.73;;;0.68;;
32138;SDS011;18644;48.700;9.210;2022-08-07T14:53:12;0.70;;;0.70;;
32138;SDS011;18644;48.700;9.210;2022-08-07T14:55:40;0.57;;;0.57;;
32138;SDS011;18644;48.700;9.210;2022-08-07T14:58:08;0.40;;;0.40;;
32138;SDS011;18644;48.700;9.210;2022-08-07T15:00:40;0.40;;;0.40;;
32138;SDS011;18644;48.700;9.210;2022-08-07T15:03:13;0.50;;;0.50;;
32138;SDS011;18644;48.700;9.210;2022-08-07T15:05:42;0.45;;;0.45;;
32138;SDS011;18644;48.700;9.210;2022-08-07T15:08:12;0.88;;;0.55;;
32138;SDS011;18644;48.700;9.210;2022-08-07T15:10:47;0.50;;;0.47;;
32138;SDS011;18644;48.700;9.210;2022-08-07T15:13:23;0.52;;;0.50;;
32138;SDS011;18644;48.700;9.210;2022-08-07T15:15:52;0.50;;;0.50;;
32138;SDS011;18644;48.700;9.210;2022-08-07T15:18:29;0.82;;;0.50;;
32138;SDS011;18644;48.700;9.210;2022-08-07T15:21:03;0.50;;;0.50;;
32138;SDS011;18644;48.700;9.210;2022-08-07T15:23:38;0.50;;;0.50;;
32138;SDS011;18644;48.700;9.210;2022-08-07T15:26:07;1.20;;;0.55;;
32138;SDS011;18644;48.700;9.210;2022-08-07T15:28:37;1.27;;;0.45;;
32138;SDS011;18644;48.700;9.210;2022-08-07T15:31:07;0.45;;;0.40;;
32138;SDS011;18644;48.700;9.210;2022-08-07T15:33:37;0.70;;;0.70;;
32138;SDS011;18644;48.700;9.210;2022-08-07T15:36:07;0.47;;;0.47;;
32138;SDS011;18644;48.700;9.210;2022-08-07T15:38:36;0.40;;;0.40;;
32138;SDS011;18644;48.700;9.210;2022-08-07T15:41:08;0.77;;;0.50;;